createdAt,value
2022-08-04T00:00:05.493Z,3.30
2022-08-04T00:01:05.522Z,3.60
2022-08-04T00:02:05.485Z,3.40
2022-08-04T00:03:05.467Z,3.70
2022-08-04T00:04:05.486Z,3.60
2022-08-04T00:05:05.619Z,3.80
2022-08-04T00:06:05.451Z,3.90
2022-08-04T00:07:05.466Z,3.70
2022-08-04T00:08:05.434Z,3.50
2022-08-04T00:09:05.438Z,3.90
2022-08-04T00:10:05.422Z,3.90
2022-08-04T00:11:05.417Z,3.70
2022-08-04T00:12:05.407Z,3.50
2022-08-04T00:13:05.399Z,3.50
2022-08-04T00:14:05.391Z,3.60
2022-08-04T00:15:05.402Z,3.70
2022-08-04T00:16:05.401Z,3.60
2022-08-04T00:17:05.380Z,3.60
2022-08-04T00:18:05.353Z,3.70
2022-08-04T00:19:05.353Z,4.10
2022-08-04T00:20:05.356Z,3.90
2022-08-04T00:21:05.358Z,3.90
2022-08-04T00:22:05.335Z,4.10
2022-08-04T00:23:05.342Z,4.40
2022-08-04T00:24:11.869Z,3.90
2022-08-04T00:25:06.308Z,4.00
2022-08-04T00:26:05.309Z,3.80
2022-08-04T00:27:05.307Z,3.80
2022-08-04T00:28:05.272Z,4.10
2022-08-04T00:29:05.288Z,3.60
2022-08-04T00:30:05.275Z,3.90
2022-08-04T00:31:05.260Z,3.90
2022-08-04T00:32:05.259Z,4.20
2022-08-04T00:33:05.270Z,4.10
2022-08-04T00:34:05.235Z,4.40
2022-08-04T00:35:05.225Z,4.10
2022-08-04T00:36:05.233Z,3.90
2022-08-04T00:37:05.221Z,3.90
2022-08-04T00:38:05.233Z,4.00
2022-08-04T00:39:05.224Z,3.90
2022-08-04T00:40:05.203Z,4.00
2022-08-04T00:41:05.182Z,3.90
2022-08-04T00:42:05.190Z,3.90
2022-08-04T00:43:05.188Z,3.80
2022-08-04T00:44:05.155Z,4.00
2022-08-04T00:45:05.153Z,3.90
2022-08-04T00:46:16.855Z,4.00
2022-08-04T00:47:06.140Z,3.80
2022-08-04T00:48:05.173Z,3.80
2022-08-04T00:49:05.129Z,4.10
2022-08-04T00:50:05.170Z,3.80
2022-08-04T00:51:05.832Z,4.00
2022-08-04T00:52:33.267Z,4.20
2022-08-04T00:53:06.109Z,3.90
2022-08-04T00:54:05.087Z,3.90
2022-08-04T00:55:08.617Z,4.10
2022-08-04T00:56:06.119Z,4.00
2022-08-04T00:57:05.113Z,4.00
2022-08-04T00:58:05.064Z,4.00
2022-08-04T00:59:05.058Z,4.00
2022-08-04T01:00:05.070Z,4.10
2022-08-04T01:01:05.144Z,3.90
2022-08-04T01:02:05.048Z,4.20
2022-08-04T01:03:05.046Z,4.10
2022-08-04T01:04:05.011Z,3.80
2022-08-04T01:05:05.007Z,4.10
2022-08-04T01:06:05.015Z,4.20
2022-08-04T01:07:05.023Z,4.30
2022-08-04T01:08:04.999Z,3.90
2022-08-04T01:09:04.969Z,4.50
2022-08-04T01:10:04.958Z,3.90
2022-08-04T01:11:04.945Z,3.70
2022-08-04T01:12:04.984Z,4.00
2022-08-04T01:13:07.805Z,4.00
2022-08-04T01:14:05.954Z,4.00
2022-08-04T01:15:04.957Z,4.00
2022-08-04T01:16:04.916Z,4.30
2022-08-04T01:17:04.921Z,4.00
2022-08-04T01:18:05.911Z,4.00
2022-08-04T01:19:04.893Z,4.20
2022-08-04T01:20:04.899Z,4.20
2022-08-04T01:21:04.883Z,4.20
2022-08-04T01:22:04.890Z,4.20
2022-08-04T01:23:04.865Z,4.00
2022-08-04T01:24:04.878Z,4.20
2022-08-04T01:25:04.915Z,4.10
2022-08-04T01:26:06.936Z,4.00
2022-08-04T01:27:05.837Z,4.10
2022-08-04T01:28:04.816Z,4.40
2022-08-04T01:29:04.887Z,4.70
2022-08-04T01:30:04.825Z,4.30
2022-08-04T01:31:04.845Z,4.30
2022-08-04T01:32:04.814Z,4.30
2022-08-04T01:33:04.781Z,3.90
2022-08-04T01:34:05.003Z,4.00
2022-08-04T01:35:04.816Z,4.40
2022-08-04T01:36:04.811Z,4.20
2022-08-04T01:37:04.775Z,4.70
2022-08-04T01:38:20.083Z,4.60
2022-08-04T01:39:05.842Z,4.40
2022-08-04T01:40:04.790Z,4.00
2022-08-04T01:41:04.755Z,4.40
2022-08-04T01:42:04.724Z,4.40
2022-08-04T01:43:04.741Z,4.30
2022-08-04T01:44:04.710Z,4.40
2022-08-04T02:01:14.085Z,4.60
2022-08-04T02:02:13.495Z,4.70
2022-08-04T02:03:13.355Z,4.60
2022-08-04T02:04:21.833Z,4.50
2022-08-04T02:05:14.383Z,4.70
2022-08-04T02:06:13.388Z,4.70
2022-08-04T02:07:14.077Z,4.80
2022-08-04T02:08:14.305Z,4.90
2022-08-04T02:09:13.346Z,4.70
2022-08-04T02:10:13.305Z,4.50
2022-08-04T02:11:13.374Z,4.70
2022-08-04T02:12:16.211Z,4.50
2022-08-04T02:13:13.455Z,4.50
2022-08-04T02:14:13.271Z,4.60
2022-08-04T02:15:45.197Z,4.60
2022-08-04T02:16:13.286Z,4.80
2022-08-04T02:17:14.029Z,4.50
2022-08-04T02:18:13.282Z,4.70
2022-08-04T02:19:14.638Z,4.70
2022-08-04T02:20:13.261Z,4.70
2022-08-04T02:21:13.210Z,4.60
2022-08-04T02:22:13.203Z,4.60
2022-08-04T02:23:13.188Z,5.10
2022-08-04T02:24:13.179Z,5.00
2022-08-04T02:25:13.188Z,4.90
2022-08-04T02:26:13.291Z,4.80
2022-08-04T02:27:14.161Z,5.00
2022-08-04T02:28:13.198Z,4.80
2022-08-04T02:29:13.145Z,4.90
2022-08-04T02:30:13.169Z,4.70
2022-08-04T02:31:14.154Z,4.90
2022-08-04T02:32:13.138Z,4.90
2022-08-04T02:33:13.173Z,5.00
2022-08-04T02:34:13.119Z,5.20
2022-08-04T02:35:14.117Z,4.80
2022-08-04T02:36:13.113Z,5.00
2022-08-04T02:37:13.210Z,4.60
2022-08-04T02:38:13.103Z,4.80
2022-08-04T02:39:13.149Z,5.20
2022-08-04T02:40:13.067Z,5.00
2022-08-04T02:41:13.070Z,4.80
2022-08-04T02:42:13.053Z,4.90
2022-08-04T02:43:13.045Z,5.20
2022-08-04T02:44:13.060Z,4.90
2022-08-04T02:45:13.045Z,4.80
2022-08-04T02:46:17.976Z,5.20
2022-08-04T02:47:14.050Z,5.40
2022-08-04T02:48:31.167Z,5.10
2022-08-04T02:49:14.025Z,4.80
2022-08-04T02:50:12.984Z,4.90
2022-08-04T02:51:13.003Z,5.40
2022-08-04T02:52:12.997Z,5.20
2022-08-04T02:53:12.980Z,4.90
2022-08-04T02:54:12.953Z,5.00
2022-08-04T02:55:13.535Z,5.20
2022-08-04T02:56:12.948Z,4.70
2022-08-04T02:57:12.964Z,4.80
2022-08-04T02:58:12.967Z,5.40
2022-08-04T02:59:12.998Z,5.00
2022-08-04T03:00:12.919Z,5.20
2022-08-04T03:01:12.924Z,5.10
2022-08-04T03:02:12.906Z,4.80
2022-08-04T03:03:13.062Z,4.80
2022-08-04T03:04:12.906Z,5.30
2022-08-04T03:05:13.879Z,5.10
2022-08-04T03:06:12.865Z,5.20
2022-08-04T03:07:15.612Z,5.20
2022-08-04T03:08:12.874Z,5.00
2022-08-04T03:09:12.873Z,5.50
2022-08-04T03:10:12.854Z,5.30
2022-08-04T03:11:12.898Z,5.50
2022-08-04T03:12:12.826Z,5.20
2022-08-04T03:13:12.817Z,5.40
2022-08-04T03:14:12.972Z,5.30
2022-08-04T03:15:12.834Z,5.40
2022-08-04T03:16:12.798Z,5.40
2022-08-04T03:17:12.885Z,5.20
2022-08-04T03:18:12.784Z,5.30
2022-08-04T03:19:12.806Z,5.20
2022-08-04T03:20:12.785Z,5.20
2022-08-04T03:21:12.760Z,5.50
2022-08-04T03:22:13.565Z,5.40
2022-08-04T03:23:14.004Z,5.20
2022-08-04T03:24:18.225Z,5.30
2022-08-04T03:25:14.743Z,5.10
2022-08-04T03:26:12.729Z,5.10
2022-08-04T03:27:13.597Z,5.10
2022-08-04T03:28:12.716Z,5.20
2022-08-04T03:29:12.701Z,5.40
2022-08-04T03:30:12.717Z,5.70
2022-08-04T03:31:12.712Z,5.60
2022-08-04T03:32:12.746Z,5.50
2022-08-04T03:33:12.674Z,5.40
2022-08-04T03:34:12.667Z,5.60
2022-08-04T03:35:13.603Z,5.40
2022-08-04T03:36:13.661Z,5.40
2022-08-04T03:37:12.743Z,5.40
2022-08-04T03:38:12.677Z,5.40
2022-08-04T03:39:13.601Z,5.70
2022-08-04T03:40:12.623Z,5.80
2022-08-04T03:41:12.644Z,5.10
2022-08-04T03:42:15.872Z,5.60
2022-08-04T03:43:57.515Z,5.40
2022-08-04T03:44:13.594Z,5.60
2022-08-04T03:45:23.510Z,4.90
2022-08-04T03:46:13.599Z,5.50
2022-08-04T04:02:02.018Z,5.90
2022-08-04T04:02:54.631Z,5.90
2022-08-04T04:03:53.549Z,5.90
2022-08-04T04:04:55.140Z,5.90
2022-08-04T04:06:00.197Z,5.90
2022-08-04T04:06:55.751Z,6.00
2022-08-04T04:07:59.653Z,6.30
2022-08-04T04:08:54.698Z,5.60
2022-08-04T04:10:01.853Z,5.50
2022-08-04T04:10:56.182Z,5.80
2022-08-04T04:11:57.624Z,5.60
2022-08-04T04:12:54.656Z,5.80
2022-08-04T04:13:54.622Z,5.90
2022-08-04T04:14:54.592Z,5.70
2022-08-04T04:15:54.595Z,7.20
2022-08-04T04:16:54.581Z,7.60
2022-08-04T04:17:54.607Z,6.70
2022-08-04T04:18:54.564Z,6.40
2022-08-04T04:19:58.385Z,6.60
2022-08-04T04:20:54.588Z,5.90
2022-08-04T04:21:54.539Z,5.40
2022-08-04T04:22:54.629Z,5.30
2022-08-04T04:23:54.550Z,5.60
2022-08-04T04:24:54.537Z,5.20
2022-08-04T04:25:54.578Z,5.30
2022-08-04T04:26:54.516Z,5.00
2022-08-04T04:27:54.492Z,5.10
2022-08-04T04:28:54.562Z,5.40
2022-08-04T04:29:54.494Z,5.30
2022-08-04T04:30:54.473Z,5.00
2022-08-04T04:31:54.494Z,5.00
2022-08-04T04:32:54.455Z,4.80
2022-08-04T04:33:54.456Z,4.90
2022-08-04T04:34:55.205Z,4.90
2022-08-04T04:35:55.191Z,4.90
2022-08-04T04:36:54.436Z,4.70
2022-08-04T04:37:54.423Z,4.70
2022-08-04T04:38:54.459Z,4.80
2022-08-04T04:39:54.418Z,4.90
2022-08-04T04:40:54.416Z,5.70
2022-08-04T04:41:54.409Z,5.40
2022-08-04T04:42:58.195Z,5.20
2022-08-04T04:43:54.377Z,5.20
2022-08-04T04:44:54.367Z,5.30
2022-08-04T04:45:54.389Z,5.40
2022-08-04T04:46:54.364Z,5.10
2022-08-04T04:48:08.375Z,4.90
2022-08-04T04:48:55.342Z,5.30
2022-08-04T04:49:54.331Z,5.00
2022-08-04T04:50:54.337Z,4.90
2022-08-04T04:51:54.316Z,4.80
2022-08-04T04:52:54.319Z,4.50
2022-08-04T04:54:00.370Z,4.80
2022-08-04T04:54:55.308Z,4.60
2022-08-04T04:55:54.810Z,4.60
2022-08-04T04:56:54.282Z,4.50
2022-08-04T04:57:55.352Z,4.90
2022-08-04T04:58:55.345Z,4.70
2022-08-04T04:59:54.268Z,4.70
2022-08-04T05:00:54.256Z,6.20
2022-08-04T05:01:55.198Z,5.50
2022-08-04T05:02:58.762Z,5.90
2022-08-04T05:03:56.202Z,6.10
2022-08-04T05:04:54.249Z,5.80
2022-08-04T05:05:54.205Z,6.00
2022-08-04T05:06:54.704Z,5.70
2022-08-04T05:07:54.200Z,5.50
2022-08-04T05:08:54.640Z,6.10
2022-08-04T05:09:55.214Z,5.20
2022-08-04T05:10:54.184Z,5.20
2022-08-04T05:11:54.415Z,5.90
2022-08-04T05:14:32.737Z,5.80
2022-08-04T05:14:38.057Z,5.10
2022-08-04T05:14:55.153Z,5.10
2022-08-04T05:15:54.133Z,5.50
2022-08-04T05:16:54.146Z,5.40
2022-08-04T05:17:54.154Z,5.40
2022-08-04T05:18:54.131Z,5.00
2022-08-04T05:19:54.163Z,5.30
2022-08-04T05:20:54.131Z,5.20
2022-08-04T05:21:54.091Z,5.50
2022-08-04T05:22:54.110Z,5.30
2022-08-04T05:23:54.710Z,5.40
2022-08-04T05:24:54.073Z,5.30
2022-08-04T05:25:59.026Z,4.90
2022-08-04T05:26:55.082Z,5.00
2022-08-04T05:27:54.053Z,4.90
2022-08-04T05:28:54.046Z,5.00
2022-08-04T05:29:54.068Z,5.00
2022-08-04T05:30:54.038Z,4.70
2022-08-04T05:31:54.056Z,5.60
2022-08-04T05:32:54.057Z,5.50
2022-08-04T05:33:55.711Z,5.20
2022-08-04T05:34:53.996Z,5.00
2022-08-04T05:36:18.417Z,5.30
2022-08-04T05:36:55.012Z,5.30
2022-08-04T05:38:01.688Z,5.70
2022-08-04T05:38:55.008Z,5.70
2022-08-04T05:39:53.970Z,5.90
2022-08-04T05:40:53.954Z,5.30
2022-08-04T05:41:55.738Z,5.30
2022-08-04T05:42:53.933Z,5.00
2022-08-04T05:43:53.965Z,4.90
2022-08-04T05:44:53.970Z,5.10
2022-08-04T05:45:53.913Z,5.30
2022-08-04T05:46:54.665Z,5.30
2022-08-04T05:47:53.903Z,5.60
2022-08-04T05:48:53.914Z,5.40
2022-08-04T05:49:55.607Z,5.50
2022-08-04T05:51:00.298Z,5.60
2022-08-04T05:51:54.881Z,5.40
2022-08-04T05:52:53.861Z,5.60
2022-08-04T05:53:54.862Z,5.60
2022-08-04T05:54:53.898Z,5.70
2022-08-04T05:55:58.540Z,5.30
2022-08-04T05:56:54.828Z,5.30
2022-08-04T05:57:55.710Z,5.00
2022-08-04T05:58:54.815Z,5.50
2022-08-04T05:59:54.740Z,5.20
2022-08-04T06:00:53.839Z,5.10
2022-08-04T06:01:56.355Z,5.20
2022-08-04T06:02:53.857Z,5.10
2022-08-04T06:03:53.785Z,5.60
2022-08-04T06:04:53.781Z,5.40
2022-08-04T06:05:53.783Z,5.60
2022-08-04T06:06:53.756Z,5.10
2022-08-04T06:08:12.292Z,5.20
2022-08-04T06:08:54.760Z,5.10
2022-08-04T06:09:53.729Z,5.40
2022-08-04T06:10:53.760Z,5.10
2022-08-04T06:12:00.889Z,5.70
2022-08-04T06:12:54.706Z,5.30
2022-08-04T06:13:53.715Z,5.50
2022-08-04T06:14:53.708Z,5.60
2022-08-04T06:15:53.765Z,5.00
2022-08-04T06:16:53.691Z,5.20
2022-08-04T06:18:35.251Z,5.50
2022-08-04T06:20:02.309Z,5.10
2022-08-04T06:20:03.860Z,5.40
2022-08-04T06:20:53.666Z,5.60
2022-08-04T06:21:53.632Z,5.50
2022-08-04T06:22:54.664Z,5.40
2022-08-04T06:23:57.838Z,5.80
2022-08-04T06:24:54.641Z,5.60
2022-08-04T06:25:53.621Z,5.60
2022-08-04T06:26:53.628Z,5.60
2022-08-04T06:27:53.755Z,6.00
2022-08-04T06:28:53.620Z,5.50
2022-08-04T06:29:53.808Z,5.50
2022-08-04T06:30:53.592Z,5.60
2022-08-04T06:32:31.377Z,6.00
2022-08-04T06:32:54.571Z,5.00
2022-08-04T06:33:55.399Z,5.10
2022-08-04T06:34:53.557Z,4.70
2022-08-04T06:35:53.554Z,4.90
2022-08-04T06:36:53.588Z,5.40
2022-08-04T06:37:56.632Z,5.20
2022-08-04T06:38:58.757Z,5.50
2022-08-04T06:39:53.593Z,5.20
2022-08-04T06:40:53.515Z,5.20
2022-08-04T06:42:17.002Z,5.10
2022-08-04T06:42:54.515Z,5.50
2022-08-04T06:43:54.351Z,5.00
2022-08-04T06:44:53.521Z,5.10
2022-08-04T06:45:53.520Z,5.30
2022-08-04T06:46:53.470Z,4.80
2022-08-04T06:47:53.469Z,5.50
2022-08-04T06:48:54.242Z,5.20
2022-08-04T06:51:26.162Z,4.90
2022-08-04T06:51:29.518Z,5.30
2022-08-04T06:51:54.527Z,4.40
2022-08-04T06:52:53.447Z,5.00
2022-08-04T06:53:53.419Z,4.60
2022-08-04T06:54:53.431Z,5.00
2022-08-04T06:55:53.437Z,5.10
2022-08-04T06:56:53.425Z,4.50
2022-08-04T06:57:54.366Z,4.70
2022-08-04T06:58:53.393Z,4.50
2022-08-04T06:59:53.382Z,4.60
2022-08-04T07:00:53.390Z,4.90
2022-08-04T07:01:53.465Z,4.50
2022-08-04T07:02:53.363Z,4.60
2022-08-04T07:03:54.250Z,4.80
2022-08-04T07:04:53.366Z,4.50
2022-08-04T07:05:53.371Z,4.80
2022-08-04T07:06:53.404Z,4.60
2022-08-04T07:07:56.817Z,4.80
2022-08-04T07:08:54.339Z,4.50
2022-08-04T07:09:53.352Z,5.00
2022-08-04T07:10:53.374Z,4.20
2022-08-04T07:11:53.438Z,4.50
2022-08-04T07:12:54.097Z,4.30
2022-08-04T07:13:53.377Z,4.40
2022-08-04T07:14:53.352Z,4.30
2022-08-04T07:15:53.278Z,4.30
2022-08-04T07:16:53.303Z,4.40
2022-08-04T07:17:53.270Z,4.20
2022-08-04T07:18:53.313Z,4.10
2022-08-04T07:19:53.264Z,4.20
2022-08-04T07:20:53.230Z,4.40
2022-08-04T07:22:17.659Z,4.10
2022-08-04T07:22:54.265Z,4.00
2022-08-04T07:23:53.250Z,3.70
2022-08-04T07:24:53.257Z,4.00
2022-08-04T07:26:11.864Z,3.70
2022-08-04T07:26:54.213Z,4.00
2022-08-04T07:27:53.206Z,3.40
2022-08-04T07:28:53.885Z,4.10
2022-08-04T07:29:53.397Z,3.90
2022-08-04T07:30:53.190Z,4.00
2022-08-04T07:31:53.185Z,3.80
2022-08-04T07:32:53.208Z,3.60
2022-08-04T07:34:21.012Z,3.80
2022-08-04T07:34:54.216Z,3.90
2022-08-04T07:36:09.177Z,3.80
2022-08-04T07:36:55.448Z,3.80
2022-08-04T07:37:53.145Z,3.50
2022-08-04T07:38:53.942Z,3.90
2022-08-04T07:39:53.835Z,3.70
2022-08-04T07:40:53.786Z,3.70
2022-08-04T07:41:53.161Z,3.80
2022-08-04T07:42:53.128Z,3.70
2022-08-04T07:43:53.109Z,4.00
2022-08-04T07:44:53.121Z,3.70
2022-08-04T07:45:53.115Z,3.70
2022-08-04T07:46:53.097Z,3.80
2022-08-04T07:48:04.647Z,3.90
2022-08-04T07:48:54.090Z,3.90
2022-08-04T07:49:57.017Z,4.10
2022-08-04T07:50:53.063Z,4.10
2022-08-04T07:51:53.074Z,4.20
2022-08-04T07:53:15.353Z,4.00
2022-08-04T07:53:56.362Z,4.10
2022-08-04T07:54:54.077Z,4.10
2022-08-04T07:55:54.019Z,4.30
2022-08-04T07:56:53.080Z,4.30
2022-08-04T07:57:53.027Z,4.20
2022-08-04T07:58:53.032Z,3.90
2022-08-04T07:59:53.011Z,3.90
2022-08-04T08:00:54.056Z,4.20
2022-08-04T08:01:53.049Z,4.30
2022-08-04T08:02:53.033Z,4.40
2022-08-04T08:03:53.052Z,4.30
2022-08-04T08:04:53.804Z,4.80
2022-08-04T08:05:54.590Z,3.90
2022-08-04T08:06:54.053Z,4.20
2022-08-04T08:07:54.695Z,3.70
2022-08-04T08:08:52.960Z,3.70
2022-08-04T08:09:52.954Z,4.00
2022-08-04T08:10:52.941Z,4.10
2022-08-04T08:12:36.635Z,3.90
2022-08-04T08:12:54.780Z,3.80
2022-08-04T08:13:52.920Z,3.90
2022-08-04T08:15:24.847Z,3.60
2022-08-04T08:15:52.897Z,3.90
2022-08-04T08:16:52.933Z,4.00
2022-08-04T08:17:59.096Z,3.60
2022-08-04T08:18:53.904Z,3.30
2022-08-04T08:19:52.880Z,3.50
2022-08-04T08:20:52.901Z,3.50
2022-08-04T08:21:59.489Z,3.00
2022-08-04T08:22:53.849Z,3.30
2022-08-04T08:23:52.850Z,3.00
2022-08-04T08:24:52.871Z,2.80
2022-08-04T08:25:52.863Z,3.00
2022-08-04T08:26:52.815Z,3.20
2022-08-04T08:27:56.031Z,3.00
2022-08-04T08:28:52.827Z,3.10
2022-08-04T08:29:52.862Z,3.10
2022-08-04T08:30:53.023Z,3.10
2022-08-04T08:31:57.426Z,3.20
2022-08-04T08:32:53.804Z,3.20
2022-08-04T08:33:52.810Z,3.10
2022-08-04T08:34:52.771Z,3.40
2022-08-04T08:35:53.800Z,3.10
2022-08-04T08:36:52.764Z,3.10
2022-08-04T08:37:52.814Z,2.80
2022-08-04T08:38:52.791Z,2.70
2022-08-04T08:39:52.749Z,2.70
2022-08-04T08:40:52.759Z,3.20
2022-08-04T08:41:52.735Z,3.30
2022-08-04T08:42:52.725Z,3.30
2022-08-04T08:44:03.743Z,2.80
2022-08-04T08:44:57.805Z,2.90
2022-08-04T08:45:53.932Z,3.10
2022-08-04T08:46:52.728Z,3.10
2022-08-04T08:48:06.408Z,3.00
2022-08-04T08:48:53.712Z,3.30
2022-08-04T08:50:02.680Z,3.30
2022-08-04T08:50:53.800Z,3.00
2022-08-04T08:51:54.310Z,3.20
2022-08-04T08:52:56.231Z,2.80
2022-08-04T08:53:53.640Z,2.90
2022-08-04T08:54:52.660Z,3.20
2022-08-04T08:55:52.666Z,2.50
2022-08-04T08:56:52.642Z,2.70
2022-08-04T08:58:00.369Z,3.10
2022-08-04T08:58:53.640Z,2.90
2022-08-04T08:59:52.628Z,2.90
2022-08-04T09:00:52.593Z,2.80
2022-08-04T09:01:52.680Z,3.20
2022-08-04T09:03:04.505Z,3.00
2022-08-04T09:03:53.582Z,2.60
2022-08-04T09:04:52.575Z,2.70
2022-08-04T09:05:52.567Z,2.70
2022-08-04T09:06:52.583Z,3.10
2022-08-04T09:07:52.552Z,2.90
2022-08-04T09:08:52.552Z,3.00
2022-08-04T09:09:52.545Z,2.80
2022-08-04T09:10:52.552Z,3.00
2022-08-04T09:11:52.581Z,2.80
2022-08-04T09:12:52.527Z,3.00
2022-08-04T09:13:52.540Z,2.60
2022-08-04T09:14:52.554Z,2.80
2022-08-04T09:15:54.380Z,2.70
2022-08-04T09:16:53.510Z,3.10
2022-08-04T09:17:52.522Z,2.90
2022-08-04T09:18:52.484Z,2.60
2022-08-04T09:19:52.499Z,2.40
2022-08-04T09:20:52.639Z,2.60
2022-08-04T09:21:52.457Z,2.60
2022-08-04T09:22:53.575Z,2.90
2022-08-04T09:23:52.460Z,2.50
2022-08-04T09:24:52.485Z,2.80
2022-08-04T09:25:52.451Z,2.40
2022-08-04T09:26:59.938Z,3.20
2022-08-04T09:27:53.466Z,2.40
2022-08-04T09:28:54.474Z,2.50
2022-08-04T09:29:53.432Z,2.80
2022-08-04T09:30:52.415Z,2.80
2022-08-04T09:32:07.537Z,2.80
2022-08-04T09:32:53.435Z,2.60
2022-08-04T09:33:52.437Z,2.40
2022-08-04T09:35:02.092Z,2.70
2022-08-04T09:35:53.417Z,2.40
2022-08-04T09:36:52.408Z,2.30
2022-08-04T09:37:52.372Z,2.20
2022-08-04T09:38:52.483Z,2.80
2022-08-04T09:39:52.699Z,2.70
2022-08-04T09:40:55.631Z,2.50
2022-08-04T09:41:52.834Z,2.70
2022-08-04T09:42:52.331Z,2.60
2022-08-04T09:43:59.022Z,2.30
2022-08-04T09:44:58.764Z,2.70
2022-08-04T09:45:54.322Z,2.30
2022-08-04T09:46:52.398Z,2.40
2022-08-04T09:47:52.318Z,2.50
2022-08-04T09:48:52.323Z,2.40
2022-08-04T09:49:52.307Z,2.40
2022-08-04T09:50:52.301Z,2.30
2022-08-04T09:51:57.427Z,2.40
2022-08-04T09:52:53.350Z,2.60
2022-08-04T09:53:52.263Z,2.40
2022-08-04T09:54:52.335Z,2.20
2022-08-04T09:55:53.960Z,2.40
2022-08-04T09:56:52.253Z,2.40
2022-08-04T09:57:52.412Z,2.30
2022-08-04T09:58:52.280Z,2.20
2022-08-04T09:59:52.224Z,2.00
2022-08-04T10:00:52.238Z,2.00
2022-08-04T10:02:00.151Z,1.80
2022-08-04T10:02:53.292Z,2.00
2022-08-04T10:03:52.219Z,2.20
2022-08-04T10:04:52.221Z,2.00
2022-08-04T10:05:52.222Z,2.00
2022-08-04T10:06:52.190Z,2.00
2022-08-04T10:08:02.123Z,1.80
2022-08-04T10:08:56.990Z,2.10
2022-08-04T10:09:53.279Z,2.10
2022-08-04T10:10:52.173Z,1.90
2022-08-04T10:11:55.520Z,1.90
2022-08-04T10:12:52.173Z,1.50
2022-08-04T10:13:52.187Z,1.70
2022-08-04T10:14:52.181Z,2.00
2022-08-04T10:15:52.133Z,1.80
2022-08-04T10:16:52.120Z,2.00
2022-08-04T10:17:52.762Z,2.00
2022-08-04T10:18:52.141Z,1.90
2022-08-04T10:19:54.255Z,1.90
2022-08-04T10:20:57.438Z,2.00
2022-08-04T10:21:59.355Z,1.90
2022-08-04T10:23:10.582Z,1.90
2022-08-04T10:23:55.810Z,1.90
2022-08-04T10:24:53.126Z,1.70
2022-08-04T10:26:07.478Z,1.80
2022-08-04T10:26:57.228Z,1.90
2022-08-04T10:27:53.072Z,1.70
2022-08-04T10:28:52.076Z,1.80
2022-08-04T10:29:52.058Z,1.70
2022-08-04T10:30:52.055Z,1.60
2022-08-04T10:31:52.045Z,1.70
2022-08-04T10:32:52.075Z,1.50
2022-08-04T10:33:52.046Z,1.40
2022-08-04T10:34:52.032Z,1.30
2022-08-04T10:35:52.026Z,1.50
2022-08-04T10:36:52.047Z,1.50
2022-08-04T10:37:59.892Z,1.50
2022-08-04T10:38:53.043Z,1.50
2022-08-04T10:39:52.028Z,1.60
2022-08-04T10:40:51.972Z,1.60
2022-08-04T10:41:51.986Z,1.70
2022-08-04T10:42:52.063Z,1.60
2022-08-04T10:43:51.969Z,1.40
2022-08-04T10:44:55.560Z,1.40
2022-08-04T10:45:57.863Z,1.50
2022-08-04T10:46:51.937Z,1.40
2022-08-04T10:47:53.360Z,1.50
2022-08-04T10:48:52.965Z,1.70
2022-08-04T10:49:51.928Z,1.50
2022-08-04T10:50:55.488Z,1.40
2022-08-04T10:51:57.637Z,1.60
2022-08-04T10:52:52.929Z,1.50
2022-08-04T10:53:53.413Z,1.50
2022-08-04T10:54:52.919Z,1.70
2022-08-04T10:56:07.579Z,1.30
2022-08-04T10:56:56.555Z,1.50
2022-08-04T10:57:52.917Z,1.50
2022-08-04T10:58:51.941Z,1.50
2022-08-04T10:59:51.879Z,1.60
2022-08-04T11:00:52.014Z,1.50
2022-08-04T11:02:01.199Z,1.40
2022-08-04T11:02:52.926Z,1.30
2022-08-04T11:03:51.850Z,1.40
2022-08-04T11:05:23.763Z,1.50
2022-08-04T11:05:51.887Z,1.20
2022-08-04T11:06:51.907Z,1.60
2022-08-04T11:07:51.811Z,1.30
2022-08-04T11:08:51.809Z,1.50
2022-08-04T11:09:51.819Z,1.20
2022-08-04T11:10:51.812Z,1.30
2022-08-04T11:12:00.832Z,1.20
2022-08-04T11:12:53.785Z,1.30
2022-08-04T11:13:51.788Z,1.30
2022-08-04T11:14:51.832Z,1.20
2022-08-04T11:15:51.761Z,1.40
2022-08-04T11:16:51.765Z,1.20
2022-08-04T11:17:51.754Z,1.50
2022-08-04T11:18:51.743Z,1.20
2022-08-04T11:19:54.550Z,1.40
2022-08-04T11:20:53.766Z,1.30
2022-08-04T11:21:51.739Z,1.50
2022-08-04T11:22:51.727Z,1.50
2022-08-04T11:23:51.745Z,1.30
2022-08-04T11:24:51.727Z,1.50
2022-08-04T11:25:52.334Z,1.50
2022-08-04T11:26:52.773Z,1.50
2022-08-04T11:27:51.687Z,1.40
2022-08-04T11:29:03.164Z,1.60
2022-08-04T11:29:53.679Z,1.40
2022-08-04T11:30:51.686Z,1.40
2022-08-04T11:31:52.332Z,1.40
2022-08-04T11:32:52.677Z,1.30
2022-08-04T11:33:51.688Z,1.60
2022-08-04T11:34:52.867Z,1.40
2022-08-04T11:35:51.647Z,1.40
2022-08-04T11:36:51.676Z,1.40
2022-08-04T11:37:51.648Z,1.50
2022-08-04T11:38:52.299Z,1.50
2022-08-04T11:39:51.613Z,1.40
2022-08-04T11:41:02.792Z,1.20
2022-08-04T11:41:52.626Z,1.50
2022-08-04T11:42:51.601Z,1.30
2022-08-04T11:44:02.863Z,1.30
2022-08-04T11:44:52.602Z,1.60
2022-08-04T11:45:51.579Z,1.50
2022-08-04T11:46:51.620Z,1.30
2022-08-04T11:47:51.653Z,1.30
2022-08-04T11:48:51.729Z,1.40
2022-08-04T11:49:56.585Z,1.50
2022-08-04T11:50:54.047Z,1.50
2022-08-04T11:51:52.659Z,1.30
2022-08-04T11:52:51.562Z,1.60
2022-08-04T11:53:51.559Z,1.50
2022-08-04T11:54:52.436Z,1.40
2022-08-04T11:56:08.082Z,1.30
2022-08-04T11:56:52.519Z,1.40
2022-08-04T11:57:54.367Z,1.40
2022-08-04T11:58:51.524Z,1.40
2022-08-04T11:59:51.494Z,1.20
2022-08-04T12:00:51.521Z,1.40
2022-08-04T12:01:51.506Z,1.30
2022-08-04T12:02:51.615Z,1.30
2022-08-04T12:04:03.433Z,1.50
2022-08-04T12:04:52.445Z,1.30
2022-08-04T12:05:51.443Z,1.40
2022-08-04T12:07:04.740Z,1.50
2022-08-04T12:07:53.442Z,1.40
2022-08-04T12:08:51.430Z,1.40
2022-08-04T12:09:51.461Z,1.50
2022-08-04T12:10:51.419Z,1.60
2022-08-04T12:11:51.398Z,1.30
2022-08-04T12:12:51.393Z,1.40
2022-08-04T12:13:51.388Z,1.40
2022-08-04T12:14:51.400Z,1.60
2022-08-04T12:15:51.460Z,1.40
2022-08-04T12:16:51.377Z,1.40
2022-08-04T12:18:37.928Z,1.60
2022-08-04T12:20:03.364Z,1.50
2022-08-04T12:20:41.617Z,1.40
2022-08-04T12:21:39.045Z,1.40
2022-08-04T12:22:40.898Z,1.40
2022-08-04T12:23:39.021Z,1.50
2022-08-04T12:24:39.042Z,1.60
2022-08-04T12:25:41.986Z,1.50
2022-08-04T12:26:41.019Z,1.50
2022-08-04T12:27:39.049Z,1.40
2022-08-04T12:29:07.176Z,1.50
2022-08-04T12:29:41.004Z,1.40
2022-08-04T12:30:57.436Z,1.60
2022-08-04T12:31:39.991Z,1.80
2022-08-04T12:32:38.987Z,1.80
2022-08-04T12:34:02.831Z,1.60
2022-08-04T12:34:39.959Z,1.60
2022-08-04T12:35:38.956Z,1.50
2022-08-04T12:36:39.933Z,1.40
2022-08-04T12:37:38.982Z,1.60
2022-08-04T12:38:38.938Z,1.80
2022-08-04T12:40:17.038Z,1.60
2022-08-04T12:40:39.916Z,1.50
2022-08-04T12:41:38.905Z,1.60
2022-08-04T12:42:38.943Z,1.60
2022-08-04T12:43:39.963Z,1.80
2022-08-04T12:44:39.361Z,1.60
2022-08-04T12:45:38.915Z,1.60
2022-08-04T12:46:38.875Z,1.70
2022-08-04T12:47:39.109Z,1.60
2022-08-04T12:48:38.891Z,1.80
2022-08-04T12:49:38.931Z,1.70
2022-08-04T12:50:38.873Z,1.70
2022-08-04T12:52:08.000Z,1.60
2022-08-04T12:52:59.571Z,1.70
2022-08-04T12:53:50.716Z,1.60
2022-08-04T12:54:39.836Z,1.70
2022-08-04T12:55:38.859Z,1.70
2022-08-04T12:56:38.815Z,1.80
2022-08-04T12:57:38.805Z,1.80
2022-08-04T12:58:43.205Z,1.80
2022-08-04T12:59:39.852Z,1.70
2022-08-04T13:00:41.618Z,1.80
2022-08-04T13:02:09.748Z,1.60
2022-08-04T13:02:40.897Z,2.00
2022-08-04T13:03:38.755Z,1.70
2022-08-04T13:04:38.759Z,1.60
2022-08-04T13:05:38.796Z,1.60
2022-08-04T13:06:38.799Z,1.80
2022-08-04T13:07:38.731Z,1.90
2022-08-04T13:08:39.734Z,1.60
2022-08-04T13:09:38.738Z,1.90
2022-08-04T13:10:38.754Z,1.50
2022-08-04T13:11:38.732Z,1.70
2022-08-04T13:12:38.699Z,1.70
2022-08-04T13:13:38.745Z,1.70
2022-08-04T13:14:38.716Z,1.70
2022-08-04T13:15:47.002Z,1.60
2022-08-04T13:16:39.691Z,1.70
2022-08-04T13:17:39.682Z,1.60
2022-08-04T13:18:38.675Z,1.70
2022-08-04T13:19:41.503Z,1.70
2022-08-04T13:20:38.730Z,1.70
2022-08-04T13:21:50.348Z,1.90
2022-08-04T13:22:39.675Z,1.90
2022-08-04T13:24:09.249Z,1.60
2022-08-04T13:24:56.321Z,1.60
2022-08-04T13:26:44.491Z,1.60
2022-08-04T13:26:45.147Z,1.80
2022-08-04T13:27:42.883Z,1.70
2022-08-04T13:28:38.619Z,1.90
2022-08-04T13:30:00.674Z,1.60
2022-08-04T13:30:39.607Z,1.70
2022-08-04T13:31:38.597Z,1.80
2022-08-04T13:32:38.605Z,1.70
2022-08-04T13:33:38.584Z,1.90
2022-08-04T13:34:38.617Z,2.10
2022-08-04T13:35:55.717Z,1.60
2022-08-04T13:36:39.552Z,1.60
2022-08-04T13:37:38.568Z,1.60
2022-08-04T13:38:38.610Z,1.60
2022-08-04T13:39:38.609Z,1.60
2022-08-04T13:40:38.550Z,1.70
2022-08-04T13:41:38.533Z,1.40
2022-08-04T13:42:38.555Z,1.70
2022-08-04T13:44:16.319Z,1.60
2022-08-04T13:44:39.506Z,1.60
2022-08-04T13:45:38.536Z,1.60
2022-08-04T13:46:38.499Z,1.70
2022-08-04T13:47:38.520Z,1.60
2022-08-04T13:48:38.517Z,1.80
2022-08-04T13:49:54.558Z,1.60